Time;durP1;ratioP1;P1;durP2;ratioP2;P2;SDS_P1;SDS_P2;PMS_P1;PMS_P2;Temp;Humidity;BMP_temperature;BMP_pressure;BME280_temperature;BME280_humidity;BME280_pressure;Samples;Min_cycle;Max_cycle;Signal;HPM_P1;HPM_P2
2023/06/09 00:02:21;;;;;;;4.35;3.40;;;14.70;99.90;;;;;;4995833;28;20541;-77
2023/06/09 00:04:48;;;;;;;5.13;3.92;;;14.70;99.90;;;;;;4997084;28;20041;-77
2023/06/09 00:07:16;;;;;;;5.35;3.83;;;14.70;99.90;;;;;;4995707;28;20034;-77
2023/06/09 00:09:45;;;;;;;5.32;3.75;;;14.70;99.90;;;;;;4997427;28;20026;-77
2023/06/09 00:12:12;;;;;;;4.28;3.58;;;14.70;99.90;;;;;;4997572;28;20027;-77
2023/06/09 00:14:38;;;;;;;4.38;3.35;;;14.70;99.90;;;;;;4996930;28;20052;-77
2023/06/09 00:17:09;;;;;;;6.10;4.22;;;14.60;99.90;;;;;;4996512;28;20593;-78
2023/06/09 00:19:36;;;;;;;5.57;4.30;;;14.50;99.90;;;;;;4997328;28;20081;-77
2023/06/09 00:22:02;;;;;;;5.95;4.38;;;14.40;99.90;;;;;;4997534;28;20034;-77
2023/06/09 00:24:28;;;;;;;7.07;4.65;;;14.30;99.90;;;;;;4996537;28;20044;-77
2023/06/09 00:26:53;;;;;;;6.20;4.03;;;14.20;99.90;;;;;;4995603;28;20038;-78
2023/06/09 00:29:22;;;;;;;6.38;4.25;;;14.20;99.90;;;;;;4996527;28;20029;-77
2023/06/09 00:31:47;;;;;;;5.68;4.00;;;14.10;99.90;;;;;;4999071;28;20034;-78
2023/06/09 00:34:14;;;;;;;5.32;4.10;;;14.10;99.90;;;;;;4996625;28;20041;-77
2023/06/09 00:36:40;;;;;;;5.40;4.07;;;14.00;99.90;;;;;;4995840;28;20088;-77
2023/06/09 00:39:05;;;;;;;5.13;3.75;;;14.00;99.90;;;;;;4996050;28;20067;-78
2023/06/09 00:41:36;;;;;;;8.10;4.70;;;13.90;99.90;;;;;;4996564;28;20436;-78
2023/06/09 00:44:02;;;;;;;7.18;4.70;;;13.80;99.90;;;;;;4996363;28;20636;-77
2023/06/09 00:46:28;;;;;;;5.53;4.20;;;13.70;99.90;;;;;;4996561;28;20070;-78
2023/06/09 00:48:53;;;;;;;5.50;4.25;;;13.70;99.90;;;;;;4996657;28;20462;-77
2023/06/09 00:51:19;;;;;;;5.10;4.30;;;13.60;99.90;;;;;;4997038;28;20041;-77
2023/06/09 00:53:45;;;;;;;6.13;4.22;;;13.60;99.90;;;;;;4995471;28;20037;-77
2023/06/09 00:56:12;;;;;;;6.97;4.47;;;13.60;99.90;;;;;;4996561;28;20030;-77
2023/06/09 00:58:37;;;;;;;5.38;4.63;;;13.50;99.90;;;;;;4996326;28;20030;-78
2023/06/09 01:01:04;;;;;;;5.30;4.50;;;13.40;99.90;;;;;;4996424;28;20041;-77
2023/06/09 01:03:32;;;;;;;6.70;4.25;;;13.40;99.90;;;;;;4996642;28;20514;-77
2023/06/09 01:06:09;;;;;;;7.85;4.70;;;13.40;99.90;;;;;;5001926;28;20038;-78
2023/06/09 01:08:41;;;;;;;7.32;4.38;;;13.40;99.90;;;;;;5002896;28;20029;-78
2023/06/09 01:11:41;;;;;;;8.15;4.10;;;13.40;99.90;;;;;;5002861;28;20512;-77
2023/06/09 01:14:20;;;;;;;6.53;4.78;;;13.30;99.90;;;;;;5002129;28;20513;-77
2023/06/09 01:17:02;;;;;;;6.47;4.63;;;13.40;99.90;;;;;;5002291;28;20037;-77
2023/06/09 01:19:34;;;;;;;6.35;4.47;;;13.40;99.90;;;;;;5002368;28;20129;-77
2023/06/09 01:22:06;;;;;;;7.07;4.78;;;13.30;99.90;;;;;;5002551;28;20470;-77
2023/06/09 01:24:32;;;;;;;6.22;4.47;;;13.30;99.90;;;;;;5002895;28;20036;-77
2023/06/09 01:27:01;;;;;;;4.97;4.07;;;13.30;99.90;;;;;;5001775;28;20201;-77
2023/06/09 01:29:30;;;;;;;5.05;4.32;;;13.30;99.90;;;;;;5002695;28;20157;-77
2023/06/09 01:31:56;;;;;;;4.78;3.92;;;13.20;99.90;;;;;;5001087;28;20041;-78
2023/06/09 01:34:21;;;;;;;6.00;4.30;;;13.20;99.90;;;;;;5001514;28;20030;-78
2023/06/09 01:36:50;;;;;;;5.78;4.30;;;13.20;99.90;;;;;;5000490;28;20108;-77
2023/06/09 01:39:16;;;;;;;6.38;4.90;;;13.20;99.90;;;;;;5001320;28;20038;-78
2023/06/09 01:41:42;;;;;;;6.10;4.75;;;13.10;99.90;;;;;;5001700;28;20093;-77
2023/06/09 01:44:07;;;;;;;6.38;4.57;;;13.10;99.90;;;;;;5001988;28;20490;-78
2023/06/09 01:46:33;;;;;;;7.20;4.85;;;13.10;99.90;;;;;;5000676;28;20095;-78
2023/06/09 01:49:19;;;;;;;5.15;4.45;;;13.10;99.90;;;;;;5001073;28;20033;-77
2023/06/09 01:51:51;;;;;;;6.93;4.97;;;13.10;99.90;;;;;;5001671;28;20037;-78
2023/06/09 01:54:24;;;;;;;5.03;3.92;;;13.10;99.90;;;;;;5002018;28;20022;-77
2023/06/09 01:57:06;;;;;;;6.13;4.65;;;13.10;99.90;;;;;;5000696;28;20042;-77
2023/06/09 01:59:53;;;;;;;6.63;4.85;;;13.00;99.90;;;;;;5001396;28;20045;-77
2023/06/09 02:02:20;;;;;;;5.93;4.75;;;13.00;99.90;;;;;;5001490;28;20034;-77
2023/06/09 02:04:49;;;;;;;6.65;4.50;;;13.00;99.90;;;;;;5001848;28;20033;-77
2023/06/09 02:07:16;;;;;;;7.32;5.00;;;13.00;99.90;;;;;;4999139;28;20034;-78
2023/06/09 02:09:45;;;;;;;6.45;4.63;;;12.90;99.90;;;;;;5001065;28;20569;-77
2023/06/09 02:12:11;;;;;;;6.53;4.93;;;12.90;99.90;;;;;;5001313;28;20038;-77
2023/06/09 02:14:37;;;;;;;6.68;5.03;;;12.90;99.90;;;;;;5001004;28;20041;-77
2023/06/09 02:17:02;;;;;;;6.93;5.28;;;12.90;99.90;;;;;;4995100;28;20120;-78
2023/06/09 02:19:37;;;;;;;8.30;5.20;;;12.80;99.90;;;;;;4997458;28;20096;-77
2023/06/09 02:22:04;;;;;;;7.10;5.32;;;12.80;99.90;;;;;;4998103;28;20499;-77
2023/06/09 02:24:30;;;;;;;6.60;4.82;;;12.80;99.90;;;;;;4996794;28;20045;-77
2023/06/09 02:26:57;;;;;;;5.35;4.85;;;12.80;99.90;;;;;;4996778;28;20036;-78
2023/06/09 02:29:27;;;;;;;8.33;5.00;;;12.80;99.90;;;;;;4962315;28;1036156;-77
2023/06/09 02:31:54;;;;;;;8.50;4.65;;;12.70;99.90;;;;;;4998293;28;20033;-77
2023/06/09 02:34:22;;;;;;;8.27;4.93;;;12.60;99.90;;;;;;4998594;28;20774;-77
2023/06/09 02:36:52;;;;;;;8.50;5.20;;;12.70;99.90;;;;;;4997702;28;20262;-77
2023/06/09 02:39:21;;;;;;;5.90;4.88;;;12.60;99.90;;;;;;5000105;28;20536;-77
2023/06/09 02:41:46;;;;;;;5.60;4.55;;;12.60;99.90;;;;;;4999196;28;20151;-77
2023/06/09 02:44:12;;;;;;;8.68;5.32;;;12.60;99.90;;;;;;5000014;28;21314;-77
2023/06/09 02:46:40;;;;;;;6.80;5.30;;;12.60;99.90;;;;;;4996999;28;20096;-78
2023/06/09 02:49:09;;;;;;;5.38;4.50;;;12.50;99.90;;;;;;4997665;28;20120;-77
2023/06/09 02:51:36;;;;;;;6.25;4.88;;;12.50;99.90;;;;;;4998093;28;20060;-77
2023/06/09 02:54:02;;;;;;;9.25;5.03;;;12.50;99.90;;;;;;4997516;28;20084;-77
2023/06/09 02:56:27;;;;;;;7.47;5.18;;;12.50;99.90;;;;;;4997453;28;20115;-78
2023/06/09 02:58:53;;;;;;;7.45;5.07;;;12.40;99.90;;;;;;4997736;28;20881;-77
2023/06/09 03:01:20;;;;;;;7.13;4.57;;;12.50;99.90;;;;;;4996761;28;20065;-77
2023/06/09 03:03:46;;;;;;;6.22;4.55;;;12.40;99.90;;;;;;4998278;28;20030;-78
2023/06/09 03:06:13;;;;;;;7.63;4.60;;;12.40;99.90;;;;;;4998028;28;20721;-78
2023/06/09 03:08:40;;;;;;;6.53;4.88;;;12.40;99.90;;;;;;4997545;28;20093;-77
2023/06/09 03:11:05;;;;;;;5.60;4.82;;;12.40;99.90;;;;;;4997627;28;20030;-77
2023/06/09 03:13:31;;;;;;;7.40;4.80;;;12.40;99.90;;;;;;4997672;28;20040;-77
2023/06/09 03:15:57;;;;;;;5.60;4.40;;;12.40;99.90;;;;;;4997836;28;20033;-77
2023/06/09 03:18:22;;;;;;;7.53;4.90;;;12.30;99.90;;;;;;4997929;28;20044;-77
2023/06/09 03:20:48;;;;;;;6.75;5.05;;;12.30;99.90;;;;;;4997702;28;20081;-78
2023/06/09 03:23:14;;;;;;;8.02;4.65;;;12.30;99.90;;;;;;4996908;28;20058;-77
2023/06/09 03:25:40;;;;;;;6.47;5.35;;;12.30;99.90;;;;;;4996910;28;20519;-78
2023/06/09 03:28:06;;;;;;;6.68;5.20;;;12.30;99.90;;;;;;4997826;28;20108;-78
2023/06/09 03:30:31;;;;;;;7.72;4.95;;;12.30;99.90;;;;;;4997131;28;20802;-77
2023/06/09 03:32:57;;;;;;;7.40;4.30;;;12.30;99.90;;;;;;4997694;28;20037;-77
2023/06/09 03:35:22;;;;;;;13.80;5.10;;;12.20;99.90;;;;;;4996203;28;20025;-78
2023/06/09 03:37:48;;;;;;;6.60;4.70;;;12.20;99.90;;;;;;4997328;28;20029;-78
2023/06/09 03:40:15;;;;;;;5.32;4.65;;;12.20;99.90;;;;;;4996750;28;20034;-77
2023/06/09 03:42:40;;;;;;;7.82;4.75;;;12.20;99.90;;;;;;4996861;28;20203;-77
2023/06/09 03:45:09;;;;;;;5.60;5.00;;;12.10;99.90;;;;;;4997401;28;20487;-78
2023/06/09 03:47:34;;;;;;;5.72;4.85;;;12.10;99.90;;;;;;4997010;28;20025;-77
2023/06/09 03:50:00;;;;;;;7.20;4.95;;;12.10;99.90;;;;;;4996781;28;20022;-77
2023/06/09 03:52:27;;;;;;;6.70;4.90;;;12.10;99.90;;;;;;4997354;28;20064;-77
2023/06/09 03:54:52;;;;;;;6.40;4.97;;;12.10;99.90;;;;;;4996968;28;20026;-78
2023/06/09 03:57:18;;;;;;;7.93;5.50;;;12.10;99.90;;;;;;4996906;28;20030;-77
2023/06/09 03:59:44;;;;;;;6.53;5.38;;;12.10;99.90;;;;;;4997156;28;20540;-77
2023/06/09 04:02:09;;;;;;;7.18;5.22;;;12.10;99.90;;;;;;4993442;28;20036;-77
2023/06/09 04:04:35;;;;;;;6.43;5.20;;;12.20;99.90;;;;;;4997404;28;20079;-77
2023/06/09 04:07:01;;;;;;;8.20;5.28;;;12.20;99.90;;;;;;4996261;28;20391;-77
2023/06/09 04:09:27;;;;;;;8.43;5.72;;;12.20;99.90;;;;;;4997140;28;21365;-77
2023/06/09 04:11:53;;;;;;;6.38;5.38;;;12.20;99.90;;;;;;4996385;28;20698;-77
2023/06/09 04:14:18;;;;;;;7.28;5.43;;;12.30;99.90;;;;;;4997023;28;20030;-77
2023/06/09 04:16:45;;;;;;;7.72;5.47;;;12.30;99.90;;;;;;4996503;28;20034;-77
2023/06/09 04:19:11;;;;;;;6.47;5.32;;;12.40;99.90;;;;;;4996240;28;20038;-77
2023/06/09 04:21:38;;;;;;;7.43;4.65;;;12.40;99.90;;;;;;4979309;28;20604;-77
2023/06/09 04:24:03;;;;;;;6.82;5.40;;;12.40;99.90;;;;;;4995556;28;20049;-77
2023/06/09 04:26:32;;;;;;;7.40;5.38;;;12.40;99.90;;;;;;4996491;28;20494;-77
2023/06/09 04:28:58;;;;;;;6.65;5.18;;;12.50;99.90;;;;;;4996012;28;20083;-77
2023/06/09 04:31:23;;;;;;;7.00;5.03;;;12.50;99.90;;;;;;4995937;28;20398;-77
2023/06/09 04:33:51;;;;;;;5.78;4.90;;;12.60;99.90;;;;;;4996677;28;20022;-77
2023/06/09 04:36:17;;;;;;;6.93;5.25;;;12.60;99.90;;;;;;4995952;28;20030;-77
2023/06/09 04:38:45;;;;;;;6.90;5.38;;;12.60;99.90;;;;;;4994125;28;20095;-78
2023/06/09 04:41:11;;;;;;;9.80;6.28;;;12.70;99.90;;;;;;4993578;28;20065;-77
2023/06/09 04:43:39;;;;;;;8.15;6.43;;;12.80;99.90;;;;;;4994368;28;20064;-77
2023/06/09 04:46:08;;;;;;;7.22;5.72;;;12.80;99.90;;;;;;4996959;28;20146;-78
2023/06/09 04:48:34;;;;;;;10.15;7.47;;;12.90;99.90;;;;;;4997026;28;20022;-77
2023/06/09 04:51:01;;;;;;;10.18;7.80;;;13.00;99.90;;;;;;4995753;28;20802;-77
2023/06/09 04:53:28;;;;;;;8.70;6.55;;;13.10;99.90;;;;;;4979439;28;20178;-78
2023/06/09 04:55:53;;;;;;;7.60;6.00;;;13.20;99.90;;;;;;4995980;28;20046;-77
2023/06/09 04:58:19;;;;;;;7.40;6.35;;;13.30;99.90;;;;;;4995924;28;20036;-77
2023/06/09 05:00:45;;;;;;;7.03;6.10;;;13.30;99.90;;;;;;4987955;28;20050;-77
2023/06/09 05:03:13;;;;;;;7.97;6.60;;;13.40;99.90;;;;;;4995721;28;20120;-77
2023/06/09 05:05:40;;;;;;;8.50;6.75;;;13.50;99.90;;;;;;4987836;28;20065;-77
2023/06/09 05:08:05;;;;;;;11.70;7.32;;;13.60;99.90;;;;;;4990747;28;20104;-77
2023/06/09 05:10:31;;;;;;;8.48;7.35;;;13.70;99.90;;;;;;4995546;28;20982;-78
2023/06/09 05:12:56;;;;;;;9.20;6.90;;;13.80;99.90;;;;;;4995719;28;20025;-77
2023/06/09 05:15:23;;;;;;;10.05;7.15;;;13.90;99.90;;;;;;4993648;28;20037;-77
2023/06/09 05:17:49;;;;;;;8.70;7.00;;;14.00;99.90;;;;;;4991720;28;20060;-78
2023/06/09 05:20:15;;;;;;;10.02;7.20;;;14.10;99.90;;;;;;4996314;28;20037;-74
2023/06/09 05:22:41;;;;;;;8.10;7.30;;;14.20;99.90;;;;;;4994396;28;20034;-74
2023/06/09 05:25:09;;;;;;;9.95;7.13;;;14.40;99.90;;;;;;4995975;28;20030;-74
2023/06/09 05:27:34;;;;;;;9.32;7.45;;;14.50;99.90;;;;;;4995313;28;20034;-74
2023/06/09 05:30:00;;;;;;;10.88;7.97;;;14.60;99.90;;;;;;4995495;28;20080;-73
2023/06/09 05:32:25;;;;;;;11.45;6.75;;;14.80;99.90;;;;;;4995666;28;20119;-77
2023/06/09 05:34:52;;;;;;;9.50;7.72;;;14.90;99.90;;;;;;4994487;28;20080;-77
2023/06/09 05:37:17;;;;;;;11.15;8.38;;;15.00;99.90;;;;;;4994492;28;20718;-78
2023/06/09 05:39:43;;;;;;;11.95;8.18;;;15.10;99.90;;;;;;4994190;28;20038;-78
2023/06/09 05:42:09;;;;;;;12.07;7.63;;;15.20;99.90;;;;;;4993452;28;20022;-77
2023/06/09 05:44:35;;;;;;;9.30;7.43;;;15.40;99.90;;;;;;4995051;28;20034;-77
2023/06/09 05:47:00;;;;;;;8.88;7.28;;;15.50;99.90;;;;;;4993880;28;20045;-77
2023/06/09 05:49:26;;;;;;;10.15;6.78;;;15.60;99.90;;;;;;4996225;28;20030;-78
2023/06/09 05:51:52;;;;;;;8.27;6.57;;;15.80;99.90;;;;;;4999074;28;20030;-77
2023/06/09 05:54:18;;;;;;;9.90;7.35;;;15.90;99.90;;;;;;4998201;28;20036;-77
2023/06/09 05:56:44;;;;;;;8.38;6.75;;;16.10;99.90;;;;;;4997205;28;20037;-77
2023/06/09 05:59:11;;;;;;;8.32;6.35;;;16.20;99.90;;;;;;4999476;28;20037;-77
2023/06/09 06:01:36;;;;;;;10.65;7.15;;;16.40;99.90;;;;;;4998397;28;20037;-77
2023/06/09 06:04:02;;;;;;;10.55;7.05;;;16.60;99.90;;;;;;4998264;28;20033;-77
2023/06/09 06:06:29;;;;;;;8.90;7.03;;;16.70;99.90;;;;;;4997479;28;20113;-78
2023/06/09 06:08:55;;;;;;;8.02;6.40;;;16.90;99.90;;;;;;4998940;28;20044;-77
2023/06/09 06:11:21;;;;;;;12.20;6.28;;;17.00;99.90;;;;;;4998941;28;20030;-78
2023/06/09 06:13:46;;;;;;;7.75;6.53;;;17.10;99.90;;;;;;4998284;28;20518;-78
2023/06/09 06:16:12;;;;;;;7.75;6.57;;;17.30;99.90;;;;;;4998088;28;20167;-77
2023/06/09 06:18:37;;;;;;;8.95;6.75;;;17.40;99.90;;;;;;4998916;28;20593;-77
2023/06/09 06:21:05;;;;;;;15.18;6.80;;;17.50;99.90;;;;;;5000188;28;20073;-78
2023/06/09 06:23:32;;;;;;;12.38;6.93;;;17.70;99.90;;;;;;5002193;28;20033;-78
2023/06/09 06:25:58;;;;;;;7.13;6.00;;;17.80;99.90;;;;;;4999593;28;20038;-78
2023/06/09 06:28:24;;;;;;;10.20;7.50;;;18.00;99.90;;;;;;4998720;28;20502;-78
2023/06/09 06:30:50;;;;;;;7.50;5.88;;;18.20;99.90;;;;;;4996343;28;20049;-78
2023/06/09 06:33:15;;;;;;;7.30;6.18;;;18.30;99.90;;;;;;4996795;28;20045;-78
2023/06/09 06:35:41;;;;;;;8.13;6.47;;;18.40;99.90;;;;;;4996960;28;20474;-78
2023/06/09 06:38:07;;;;;;;7.82;6.88;;;18.50;99.90;;;;;;4996850;28;20040;-78
2023/06/09 06:40:32;;;;;;;11.38;7.35;;;18.60;99.90;;;;;;4997856;28;20042;-78
2023/06/09 06:42:58;;;;;;;10.35;7.07;;;18.70;99.90;;;;;;4997182;28;20398;-79
2023/06/09 06:45:26;;;;;;;8.93;7.13;;;18.80;99.90;;;;;;4997326;28;20033;-78
2023/06/09 06:47:53;;;;;;;8.32;6.82;;;18.90;99.90;;;;;;4996330;28;20034;-77
2023/06/09 06:50:19;;;;;;;6.95;5.95;;;19.00;99.90;;;;;;4998681;28;20078;-77
2023/06/09 06:52:45;;;;;;;7.28;5.38;;;19.10;99.90;;;;;;4998151;28;20034;-77
2023/06/09 06:55:11;;;;;;;7.22;5.72;;;19.20;99.90;;;;;;4997039;28;20025;-77
2023/06/09 06:57:38;;;;;;;6.88;5.35;;;19.30;99.90;;;;;;4996843;28;20096;-78
2023/06/09 07:00:24;;;;;;;7.75;5.53;;;19.40;99.90;;;;;;4995181;28;20042;-78
2023/06/09 07:02:50;;;;;;;8.30;5.13;;;19.50;99.90;;;;;;4995845;28;20116;-77
2023/06/09 07:05:16;;;;;;;7.78;5.53;;;19.60;99.90;;;;;;4996893;28;20046;-77
2023/06/09 07:07:43;;;;;;;7.90;4.78;;;19.70;99.90;;;;;;4999047;28;20100;-78
2023/06/09 07:10:10;;;;;;;6.80;5.00;;;19.70;99.90;;;;;;4995960;28;20041;-78
2023/06/09 07:12:36;;;;;;;7.50;5.30;;;19.80;99.90;;;;;;4995915;28;20041;-78
2023/06/09 07:15:03;;;;;;;6.80;5.60;;;19.90;99.90;;;;;;4997218;28;20044;-78
2023/06/09 07:17:28;;;;;;;6.60;5.22;;;19.90;99.90;;;;;;4995802;28;20034;-78
2023/06/09 07:19:55;;;;;;;5.93;4.63;;;19.90;99.90;;;;;;4997681;28;20045;-78
2023/06/09 07:22:20;;;;;;;8.63;4.55;;;20.00;99.90;;;;;;4996192;28;20030;-78
2023/06/09 07:24:46;;;;;;;5.97;4.00;;;20.00;99.90;;;;;;4995885;28;20052;-78
2023/06/09 07:27:14;;;;;;;9.27;4.40;;;20.10;99.90;;;;;;4997172;28;21262;-77
2023/06/09 07:29:41;;;;;;;4.32;3.92;;;20.20;99.90;;;;;;4997063;28;20042;-78
2023/06/09 07:32:08;;;;;;;5.53;3.65;;;20.30;99.90;;;;;;4997263;28;20037;-77
2023/06/09 07:34:35;;;;;;;4.32;3.80;;;20.40;99.90;;;;;;4996679;28;20517;-77
2023/06/09 07:37:03;;;;;;;6.30;3.55;;;20.50;99.90;;;;;;4993273;28;20036;-77
2023/06/09 07:39:29;;;;;;;6.95;4.20;;;20.50;99.90;;;;;;4996124;28;20103;-78
2023/06/09 07:41:55;;;;;;;6.07;3.72;;;20.50;99.90;;;;;;4995111;28;20807;-78
2023/06/09 07:44:21;;;;;;;6.53;4.32;;;20.60;99.90;;;;;;4996337;28;20156;-77
2023/06/09 07:46:46;;;;;;;4.78;3.83;;;20.60;99.90;;;;;;4996488;28;20037;-78
2023/06/09 07:49:13;;;;;;;4.75;3.53;;;20.60;99.90;;;;;;4996635;28;20042;-78
2023/06/09 07:51:41;;;;;;;4.75;3.92;;;20.60;99.90;;;;;;4996618;28;20134;-78
2023/06/09 07:54:06;;;;;;;5.57;3.75;;;20.70;99.90;;;;;;4996547;28;20034;-78
2023/06/09 07:56:33;;;;;;;5.47;4.10;;;20.70;99.90;;;;;;4996277;28;20037;-78
2023/06/09 07:58:58;;;;;;;4.95;3.30;;;20.70;99.90;;;;;;4997896;28;20061;-78
2023/06/09 08:01:25;;;;;;;4.35;3.42;;;20.70;99.90;;;;;;4995755;28;20141;-78
2023/06/09 08:03:50;;;;;;;5.32;3.08;;;20.80;99.90;;;;;;4995413;28;20041;-78
2023/06/09 08:06:16;;;;;;;4.97;3.10;;;20.80;99.90;;;;;;4995063;28;20082;-78
2023/06/09 08:08:42;;;;;;;4.97;3.50;;;20.90;99.90;;;;;;4994975;28;20030;-78
2023/06/09 08:11:07;;;;;;;4.25;3.10;;;20.90;99.90;;;;;;4996662;28;20038;-79
2023/06/09 08:13:33;;;;;;;5.35;3.58;;;20.90;99.90;;;;;;4994981;28;20037;-77
2023/06/09 08:15:58;;;;;;;3.85;3.33;;;20.90;99.90;;;;;;4994566;28;20033;-77
2023/06/09 08:18:24;;;;;;;5.65;3.40;;;20.90;99.90;;;;;;4995074;28;20111;-77
2023/06/09 08:20:50;;;;;;;4.35;3.35;;;21.00;99.90;;;;;;4994814;28;20068;-79
2023/06/09 08:23:16;;;;;;;5.50;3.25;;;21.10;99.90;;;;;;4995225;28;20060;-79
2023/06/09 08:25:41;;;;;;;4.13;3.50;;;21.20;99.90;;;;;;4994917;28;20030;-79
2023/06/09 08:28:07;;;;;;;4.00;3.10;;;21.20;99.90;;;;;;4996974;28;20064;-78
2023/06/09 08:30:32;;;;;;;5.45;3.13;;;21.30;99.90;;;;;;4996037;28;20125;-79
2023/06/09 08:32:58;;;;;;;4.35;3.30;;;21.40;99.90;;;;;;4993941;28;20099;-74
2023/06/09 08:35:24;;;;;;;3.20;2.88;;;21.50;99.90;;;;;;4993653;28;20124;-74
2023/06/09 08:37:50;;;;;;;5.05;3.05;;;21.50;99.90;;;;;;4994060;28;20097;-74
2023/06/09 08:40:16;;;;;;;4.13;3.30;;;21.60;99.90;;;;;;4995160;28;20083;-74
2023/06/09 08:42:45;;;;;;;4.85;3.50;;;21.70;99.90;;;;;;4993686;28;20168;-74
2023/06/09 08:45:11;;;;;;;5.28;3.20;;;21.80;99.90;;;;;;4994816;28;20050;-75
2023/06/09 08:47:37;;;;;;;5.35;3.67;;;21.80;99.90;;;;;;4996164;28;20685;-74
2023/06/09 08:50:04;;;;;;;5.38;3.33;;;21.90;99.90;;;;;;4996276;28;20044;-75
2023/06/09 08:52:31;;;;;;;4.80;3.50;;;22.10;99.90;;;;;;4995425;28;20034;-74
2023/06/09 08:54:58;;;;;;;6.93;3.60;;;22.10;99.90;;;;;;4995930;28;20033;-74
2023/06/09 08:57:24;;;;;;;4.30;3.58;;;22.20;99.90;;;;;;4994869;28;20029;-73
2023/06/09 08:59:50;;;;;;;4.43;3.20;;;22.20;99.90;;;;;;4995026;28;20045;-74
2023/06/09 09:02:18;;;;;;;4.07;3.03;;;22.30;99.90;;;;;;4996224;28;20037;-74
2023/06/09 09:04:44;;;;;;;6.82;3.80;;;22.50;99.90;;;;;;4996170;28;20033;-74
2023/06/09 09:07:11;;;;;;;6.68;3.47;;;22.50;99.90;;;;;;4994781;28;20033;-74
2023/06/09 09:09:40;;;;;;;4.75;3.55;;;22.40;99.90;;;;;;4995650;28;20066;-74
2023/06/09 09:12:12;;;;;;;4.75;3.53;;;22.00;99.90;;;;;;4995476;28;20030;-74
2023/06/09 09:14:42;;;;;;;4.95;3.40;;;22.00;99.90;;;;;;4988844;28;20299;-74
2023/06/09 09:17:12;;;;;;;4.90;3.10;;;21.80;99.90;;;;;;4996063;28;20174;-74
2023/06/09 09:19:45;;;;;;;5.47;3.50;;;21.80;99.90;;;;;;4997309;28;20077;-74
2023/06/09 09:22:10;;;;;;;3.63;2.90;;;21.90;99.90;;;;;;4995798;28;20036;-74
2023/06/09 09:24:39;;;;;;;4.82;3.53;;;22.10;99.90;;;;;;4994399;28;20030;-74
2023/06/09 09:27:18;;;;;;;4.95;3.40;;;22.10;99.90;;;;;;5001015;28;20740;-74
2023/06/09 09:29:45;;;;;;;3.83;3.22;;;22.20;99.90;;;;;;5001616;28;20041;-74
2023/06/09 09:32:10;;;;;;;3.83;3.05;;;22.30;99.90;;;;;;4997950;28;20030;-74
2023/06/09 09:34:40;;;;;;;3.80;2.95;;;22.40;99.90;;;;;;4995374;28;20033;-74
2023/06/09 09:37:16;;;;;;;4.93;3.67;;;22.70;99.90;;;;;;4999619;28;20033;-74
2023/06/09 09:39:52;;;;;;;3.88;3.35;;;22.90;99.90;;;;;;4999664;28;20049;-73
2023/06/09 09:42:18;;;;;;;4.55;3.45;;;23.20;99.90;;;;;;4998677;28;20119;-74
2023/06/09 09:44:51;;;;;;;4.95;3.15;;;23.50;99.90;;;;;;4999574;28;20147;-74
2023/06/09 09:47:18;;;;;;;5.85;4.35;;;23.70;99.90;;;;;;5001138;28;20552;-74
2023/06/09 09:49:52;;;;;;;5.70;4.13;;;23.90;99.90;;;;;;4999651;28;20037;-74
2023/06/09 09:52:28;;;;;;;7.95;3.80;;;24.20;99.90;;;;;;4999825;28;20205;-74
2023/06/09 09:54:55;;;;;;;6.05;3.30;;;24.40;99.90;;;;;;4998840;28;20038;-74
2023/06/09 09:57:25;;;;;;;7.60;3.70;;;24.30;99.90;;;;;;5000260;28;20305;-74
2023/06/09 09:59:52;;;;;;;4.20;3.13;;;24.00;99.90;;;;;;5000546;28;20172;-73
2023/06/09 10:02:25;;;;;;;4.95;3.10;;;24.00;99.90;;;;;;4999091;28;21379;-74
2023/06/09 10:04:53;;;;;;;3.50;2.92;;;24.10;99.90;;;;;;4998157;28;20064;-74
2023/06/09 10:07:24;;;;;;;3.95;3.00;;;24.30;99.90;;;;;;4999955;28;20053;-74
2023/06/09 10:09:53;;;;;;;4.22;3.10;;;24.30;99.90;;;;;;4999342;28;20091;-74
2023/06/09 10:12:19;;;;;;;3.90;3.45;;;24.20;99.90;;;;;;4998577;28;20045;-74
2023/06/09 10:14:46;;;;;;;5.68;3.20;;;23.90;99.90;;;;;;4999138;28;20058;-74
2023/06/09 10:17:13;;;;;;;5.38;3.42;;;23.80;99.90;;;;;;4999151;28;20038;-73
2023/06/09 10:19:40;;;;;;;5.25;3.33;;;23.80;99.90;;;;;;4998569;28;20034;-74
2023/06/09 10:22:06;;;;;;;5.30;3.10;;;23.90;99.90;;;;;;4998665;28;20038;-73
2023/06/09 10:24:33;;;;;;;3.65;2.95;;;24.00;99.90;;;;;;4998528;28;20084;-74
2023/06/09 10:26:59;;;;;;;4.88;3.33;;;24.30;99.90;;;;;;4998165;28;20040;-74
2023/06/09 10:29:27;;;;;;;3.90;3.00;;;24.60;99.90;;;;;;4998865;28;20026;-74
2023/06/09 10:31:55;;;;;;;3.17;2.78;;;24.90;99.90;;;;;;4999128;28;20037;-74
2023/06/09 10:34:21;;;;;;;3.90;2.70;;;25.40;99.90;;;;;;4998259;28;20402;-74
2023/06/09 10:36:51;;;;;;;7.88;3.00;;;25.60;99.90;;;;;;4997034;28;20045;-73
2023/06/09 10:39:19;;;;;;;4.80;3.20;;;25.90;99.90;;;;;;4997977;28;20072;-76
2023/06/09 10:42:08;;;;;;;3.33;3.00;;;25.90;99.90;;;;;;4995658;28;20037;-74
2023/06/09 10:44:53;;;;;;;4.68;3.15;;;26.30;99.90;;;;;;4969503;28;20049;-74
2023/06/09 10:47:44;;;;;;;3.97;3.10;;;26.50;99.90;;;;;;4996771;28;20482;-74
2023/06/09 10:50:30;;;;;;;4.32;3.00;;;26.50;99.90;;;;;;4997357;28;20054;-74
2023/06/09 10:52:57;;;;;;;3.00;2.50;;;26.50;99.90;;;;;;4997391;28;20038;-76
2023/06/09 10:55:24;;;;;;;3.65;2.65;;;26.50;99.90;;;;;;4997410;28;20383;-74
2023/06/09 10:57:51;;;;;;;3.00;2.70;;;26.40;99.90;;;;;;4998537;28;20178;-74
2023/06/09 11:00:17;;;;;;;3.03;2.72;;;26.50;99.90;;;;;;4998143;28;20076;-74
2023/06/09 11:03:12;;;;;;;6.13;2.63;;;26.60;99.90;;;;;;4999010;28;20034;-74
2023/06/09 11:05:42;;;;;;;3.30;2.85;;;26.70;99.90;;;;;;4996880;28;20076;-74
2023/06/09 11:08:08;;;;;;;3.53;2.80;;;26.90;99.90;;;;;;4997854;28;20019;-74
2023/06/09 11:10:35;;;;;;;4.28;2.33;;;26.90;99.90;;;;;;4997935;28;20088;-74
2023/06/09 11:13:03;;;;;;;3.75;2.60;;;26.60;99.90;;;;;;4996747;28;20112;-74
2023/06/09 11:15:57;;;;;;;4.85;3.10;;;26.20;99.90;;;;;;4996893;28;20038;-74
2023/06/09 11:18:22;;;;;;;4.18;3.10;;;25.80;99.90;;;;;;4997738;28;20033;-74
2023/06/09 11:21:07;;;;;;;5.72;3.40;;;25.70;99.90;;;;;;4997757;28;20037;-74
2023/06/09 11:23:32;;;;;;;3.38;2.67;;;26.10;99.90;;;;;;4996017;28;20038;-74
2023/06/09 11:25:59;;;;;;;4.00;3.25;;;26.40;99.90;;;;;;4996243;28;20064;-74
2023/06/09 11:28:25;;;;;;;3.75;2.75;;;26.90;99.90;;;;;;4997459;28;20048;-74
2023/06/09 11:31:04;;;;;;;5.30;3.22;;;27.50;99.90;;;;;;4997976;28;20045;-74
2023/06/09 11:33:44;;;;;;;4.05;2.70;;;27.90;99.90;;;;;;4997064;28;20495;-74
2023/06/09 11:36:15;;;;;;;4.18;2.75;;;28.30;99.90;;;;;;4998267;28;20179;-73
2023/06/09 11:38:42;;;;;;;3.40;2.75;;;28.60;99.90;;;;;;4998924;28;20055;-72
2023/06/09 11:41:10;;;;;;;4.25;2.72;;;28.40;99.70;;;;;;4996155;28;20049;-72
2023/06/09 11:43:36;;;;;;;4.25;3.00;;;28.50;99.80;;;;;;4996247;28;20373;-72
2023/06/09 11:46:03;;;;;;;4.13;2.47;;;28.60;98.50;;;;;;4996557;28;20025;-73
2023/06/09 11:48:29;;;;;;;3.10;2.60;;;28.80;97.10;;;;;;4997138;28;20486;-73
2023/06/09 11:50:54;;;;;;;4.30;3.17;;;28.40;96.70;;;;;;4996576;28;20073;-72
2023/06/09 11:53:21;;;;;;;3.60;2.60;;;27.90;98.20;;;;;;4997496;28;20159;-72
2023/06/09 11:55:55;;;;;;;3.42;2.80;;;27.30;98.40;;;;;;4997285;28;20027;-72
2023/06/09 11:58:22;;;;;;;4.10;3.00;;;27.30;97.30;;;;;;4996911;28;20038;-73
2023/06/09 12:00:49;;;;;;;3.80;3.17;;;27.60;97.50;;;;;;4996753;28;20038;-73
2023/06/09 12:03:21;;;;;;;7.28;2.70;;;27.80;98.40;;;;;;4995700;28;21419;-73
2023/06/09 12:05:48;;;;;;;4.32;3.30;;;28.20;99.40;;;;;;4994941;28;20142;-72
2023/06/09 12:08:13;;;;;;;3.88;2.50;;;28.60;96.30;;;;;;4995864;28;21573;-72
2023/06/09 12:10:39;;;;;;;3.65;2.92;;;28.90;96.70;;;;;;4994619;28;20041;-72
2023/06/09 12:13:06;;;;;;;3.55;2.33;;;28.90;95.70;;;;;;4994901;28;20951;-72
2023/06/09 12:15:31;;;;;;;8.20;3.90;;;28.40;94.90;;;;;;4993657;28;20436;-72
2023/06/09 12:17:58;;;;;;;3.88;3.03;;;28.30;95.90;;;;;;4996129;28;20030;-72
2023/06/09 12:20:29;;;;;;;5.22;2.67;;;28.20;95.00;;;;;;4993941;28;20041;-73
2023/06/09 12:22:56;;;;;;;3.97;2.88;;;28.00;94.80;;;;;;4993703;28;20034;-74
2023/06/09 12:25:25;;;;;;;7.43;3.10;;;27.60;94.50;;;;;;4994214;28;20056;-74
2023/06/09 12:27:52;;;;;;;3.95;2.70;;;27.20;96.00;;;;;;4995292;28;22696;-74
2023/06/09 12:30:39;;;;;;;4.20;2.75;;;27.30;96.00;;;;;;4995491;28;20053;-74
2023/06/09 12:33:07;;;;;;;4.35;2.63;;;27.80;94.00;;;;;;4996136;28;20998;-74
2023/06/09 12:35:50;;;;;;;3.92;2.90;;;28.10;94.40;;;;;;4993853;28;20030;-75
2023/06/09 12:38:18;;;;;;;4.13;2.90;;;28.30;93.80;;;;;;4994982;28;20041;-74
2023/06/09 12:40:47;;;;;;;3.88;3.00;;;28.40;93.80;;;;;;4995149;28;20033;-74
2023/06/09 12:43:13;;;;;;;4.25;2.67;;;28.40;92.60;;;;;;4995000;28;20025;-74
2023/06/09 12:45:42;;;;;;;3.70;3.00;;;28.80;91.90;;;;;;4994114;28;20042;-73
2023/06/09 12:48:08;;;;;;;3.70;2.80;;;29.00;91.50;;;;;;4995053;28;20537;-74
2023/06/09 12:50:34;;;;;;;3.30;2.55;;;29.00;90.70;;;;;;4995841;28;20046;-74